Time;durP1;ratioP1;P1;durP2;ratioP2;P2;SDS_P1;SDS_P2;PMS_P1;PMS_P2;Temp;Humidity;BMP_temperature;BMP_pressure;BME280_temperature;BME280_humidity;BME280_pressure;Samples;Min_cycle;Max_cycle;Signal;HPM_P1;HPM_P2
2022/11/25 00:02:19;;;;;;;37.42;12.50;;;;;;;;;;5067807;28;20025;-80
2022/11/25 00:04:45;;;;;;;35.20;12.77;;;;;;;;;;5062359;28;20032;-80
2022/11/25 00:07:11;;;;;;;33.25;12.75;;;;;;;;;;5068399;28;20033;-80
2022/11/25 00:09:37;;;;;;;35.15;13.05;;;;;;;;;;5065835;28;20410;-79
2022/11/25 00:12:03;;;;;;;31.85;12.75;;;;;;;;;;5066866;28;20020;-79
2022/11/25 00:14:28;;;;;;;37.15;13.93;;;;;;;;;;5065824;28;20086;-80
2022/11/25 00:16:57;;;;;;;31.83;12.68;;;;;;;;;;5066612;28;20475;-79
2022/11/25 00:19:22;;;;;;;33.67;12.65;;;;;;;;;;5061511;28;20035;-79
2022/11/25 00:21:48;;;;;;;32.40;13.32;;;;;;;;;;5067697;28;20021;-79
2022/11/25 00:24:15;;;;;;;38.22;12.70;;;;;;;;;;5063698;28;20587;-80
2022/11/25 00:26:42;;;;;;;31.10;11.77;;;;;;;;;;5061912;28;20049;-79
2022/11/25 00:29:09;;;;;;;29.60;10.95;;;;;;;;;;5055136;28;20033;-79
2022/11/25 00:31:36;;;;;;;28.30;12.20;;;;;;;;;;5064978;28;20029;-79
2022/11/25 00:34:02;;;;;;;29.70;11.95;;;;;;;;;;5057509;28;20033;-79
2022/11/25 00:36:33;;;;;;;31.70;11.50;;;;;;;;;;5065669;28;21511;-80
2022/11/25 00:39:03;;;;;;;32.13;11.50;;;;;;;;;;5062479;28;20020;-79
2022/11/25 00:47:11;;;;;;;29.48;11.45;;;;;;;;;;5066039;28;20042;-79
2022/11/25 00:49:37;;;;;;;29.95;12.23;;;;;;;;;;5065284;28;20383;-79
2022/11/25 00:52:04;;;;;;;30.05;11.60;;;;;;;;;;5062121;28;20052;-79
2022/11/25 00:54:30;;;;;;;31.05;10.88;;;;;;;;;;5060625;28;20064;-79
2022/11/25 00:56:57;;;;;;;26.98;11.45;;;;;;;;;;5063213;28;20030;-79
2022/11/25 00:59:23;;;;;;;27.00;10.85;;;;;;;;;;5065820;28;20028;-79
2022/11/25 01:01:49;;;;;;;30.45;11.38;;;;;;;;;;5061504;28;20082;-79
2022/11/25 01:04:15;;;;;;;26.77;11.40;;;;;;;;;;5066779;28;20032;-80
2022/11/25 01:06:41;;;;;;;25.08;10.00;;;;;;;;;;5050391;28;20087;-80
2022/11/25 01:09:08;;;;;;;30.60;12.15;;;;;;;;;;5064386;28;20130;-80
2022/11/25 01:11:34;;;;;;;29.70;11.15;;;;;;;;;;5056724;28;20033;-80
2022/11/25 01:14:00;;;;;;;28.77;12.07;;;;;;;;;;5064040;28;20411;-80
2022/11/25 01:16:26;;;;;;;26.20;11.20;;;;;;;;;;5066834;28;20025;-79
2022/11/25 01:18:52;;;;;;;25.77;10.70;;;;;;;;;;5060850;28;20024;-79
2022/11/25 01:21:25;;;;;;;26.15;10.88;;;;;;;;;;5066952;28;20075;-80
2022/11/25 01:23:51;;;;;;;24.92;10.18;;;;;;;;;;5067283;28;20028;-79
2022/11/25 01:26:18;;;;;;;31.75;12.20;;;;;;;;;;5066658;28;20033;-80
2022/11/25 01:28:45;;;;;;;24.23;10.77;;;;;;;;;;5061946;28;20078;-80
2022/11/25 01:31:14;;;;;;;24.42;10.30;;;;;;;;;;5065450;28;20253;-80
2022/11/25 01:33:41;;;;;;;23.73;10.35;;;;;;;;;;5065684;28;20029;-80
2022/11/25 01:36:08;;;;;;;29.80;11.13;;;;;;;;;;5065843;28;20082;-80
2022/11/25 01:38:34;;;;;;;26.35;11.30;;;;;;;;;;5055838;28;20020;-80
2022/11/25 01:41:00;;;;;;;25.48;10.82;;;;;;;;;;5064946;28;20025;-80
2022/11/25 01:43:27;;;;;;;25.25;11.23;;;;;;;;;;5066169;28;20035;-81
2022/11/25 01:45:54;;;;;;;23.60;10.32;;;;;;;;;;5067882;28;20032;-80
2022/11/25 01:48:38;;;;;;;23.92;9.93;;;;;;;;;;5063260;28;20536;-79
2022/11/25 01:51:04;;;;;;;22.20;9.45;;;;;;;;;;5061422;28;20024;-80
2022/11/25 01:53:30;;;;;;;21.73;9.70;;;;;;;;;;5059345;28;20037;-80
2022/11/25 01:55:59;;;;;;;30.23;11.27;;;;;;;;;;5067415;28;20053;-80
2022/11/25 01:58:28;;;;;;;24.33;10.05;;;;;;;;;;5061049;28;20029;-80
2022/11/25 02:00:54;;;;;;;24.85;9.73;;;;;;;;;;5055255;28;20032;-80
2022/11/25 02:03:22;;;;;;;19.30;9.13;;;;;;;;;;5067288;28;20222;-80
2022/11/25 02:06:08;;;;;;;21.15;9.68;;;;;;;;;;5068932;28;20040;-79
2022/11/25 02:08:34;;;;;;;24.02;10.40;;;;;;;;;;5064985;28;20029;-79
2022/11/25 02:11:03;;;;;;;24.23;10.50;;;;;;;;;;5060148;28;20072;-80
2022/11/25 02:13:30;;;;;;;21.45;9.45;;;;;;;;;;5067699;28;20035;-78
2022/11/25 02:15:55;;;;;;;21.80;9.25;;;;;;;;;;5063396;28;20106;-78
2022/11/25 02:18:21;;;;;;;21.92;9.40;;;;;;;;;;5061863;28;20029;-78
2022/11/25 02:20:47;;;;;;;21.60;8.70;;;;;;;;;;5068090;28;20495;-78
2022/11/25 02:23:25;;;;;;;21.27;9.43;;;;;;;;;;5069024;28;20036;-78
2022/11/25 02:25:52;;;;;;;20.38;9.20;;;;;;;;;;5059609;28;20528;-78
2022/11/25 02:28:19;;;;;;;20.70;9.20;;;;;;;;;;5064384;28;20052;-78
2022/11/25 02:30:46;;;;;;;21.30;9.75;;;;;;;;;;5061664;28;20033;-78
2022/11/25 02:33:12;;;;;;;25.23;9.50;;;;;;;;;;5067536;28;20068;-78
2022/11/25 02:35:39;;;;;;;21.70;8.73;;;;;;;;;;5064486;28;20028;-78
2022/11/25 02:38:07;;;;;;;20.05;8.68;;;;;;;;;;5060405;28;20029;-78
2022/11/25 02:40:52;;;;;;;26.48;9.20;;;;;;;;;;5068870;28;20499;-78
2022/11/25 02:43:18;;;;;;;21.70;9.13;;;;;;;;;;5066325;28;20033;-78
2022/11/25 02:45:51;;;;;;;25.50;10.10;;;;;;;;;;5064052;28;20025;-78
2022/11/25 02:48:17;;;;;;;24.10;9.07;;;;;;;;;;5061340;28;20101;-78
2022/11/25 02:50:43;;;;;;;24.20;10.32;;;;;;;;;;5070736;28;20040;-78
2022/11/25 02:53:09;;;;;;;21.60;8.45;;;;;;;;;;5068214;28;20863;-78
2022/11/25 02:55:34;;;;;;;24.38;10.25;;;;;;;;;;5066950;28;20028;-78
2022/11/25 02:58:00;;;;;;;23.90;9.73;;;;;;;;;;5064069;28;20028;-78
2022/11/25 03:00:26;;;;;;;22.67;9.57;;;;;;;;;;5069006;28;20028;-78
2022/11/25 03:02:53;;;;;;;21.55;9.68;;;;;;;;;;5068509;28;20097;-79
2022/11/25 03:05:24;;;;;;;21.35;8.73;;;;;;;;;;5061111;28;20051;-79
2022/11/25 03:07:50;;;;;;;23.45;9.07;;;;;;;;;;5064809;28;20020;-79
2022/11/25 03:10:16;;;;;;;23.40;8.68;;;;;;;;;;5068795;28;20441;-79
2022/11/25 03:12:42;;;;;;;22.95;9.40;;;;;;;;;;5068420;28;20439;-79
2022/11/25 03:15:09;;;;;;;22.92;9.98;;;;;;;;;;5065207;28;20040;-79
2022/11/25 03:17:35;;;;;;;19.42;9.65;;;;;;;;;;5065263;28;20027;-79
2022/11/25 03:20:01;;;;;;;17.70;8.85;;;;;;;;;;5067576;28;20111;-79
2022/11/25 03:22:27;;;;;;;20.58;8.45;;;;;;;;;;5069813;28;20027;-80
2022/11/25 03:24:53;;;;;;;24.17;9.23;;;;;;;;;;5065313;28;20029;-80
2022/11/25 03:27:19;;;;;;;20.75;8.80;;;;;;;;;;5066950;28;20085;-79
2022/11/25 03:29:44;;;;;;;23.92;10.40;;;;;;;;;;5067295;28;20020;-79
2022/11/25 03:32:10;;;;;;;21.95;9.15;;;;;;;;;;5067930;28;20024;-79
2022/11/25 03:34:36;;;;;;;26.75;10.73;;;;;;;;;;5068886;28;20029;-80
2022/11/25 03:37:02;;;;;;;21.92;9.20;;;;;;;;;;5063706;28;20020;-79
2022/11/25 03:39:28;;;;;;;18.13;9.32;;;;;;;;;;5066631;28;20075;-79
2022/11/25 03:41:54;;;;;;;26.85;10.85;;;;;;;;;;5056893;28;20118;-79
2022/11/25 03:44:20;;;;;;;23.88;9.50;;;;;;;;;;5069452;28;20041;-79
2022/11/25 03:46:46;;;;;;;24.20;10.02;;;;;;;;;;5067535;28;20110;-79
2022/11/25 03:49:12;;;;;;;19.75;9.07;;;;;;;;;;5064626;28;20056;-79
2022/11/25 03:51:38;;;;;;;25.63;10.07;;;;;;;;;;5061803;28;20078;-79
2022/11/25 03:54:04;;;;;;;22.63;9.98;;;;;;;;;;5065074;28;20033;-79
2022/11/25 03:56:30;;;;;;;20.50;9.57;;;;;;;;;;5067078;28;20703;-79
2022/11/25 03:58:55;;;;;;;20.20;8.82;;;;;;;;;;5063319;28;20020;-79
2022/11/25 04:01:21;;;;;;;17.20;8.93;;;;;;;;;;5064617;28;20036;-79
2022/11/25 04:03:47;;;;;;;26.27;9.95;;;;;;;;;;5066663;28;20036;-80
2022/11/25 04:06:14;;;;;;;22.67;9.55;;;;;;;;;;5060436;28;20111;-79
2022/11/25 04:08:40;;;;;;;24.15;8.73;;;;;;;;;;5072847;28;20024;-79
2022/11/25 04:11:06;;;;;;;20.90;9.80;;;;;;;;;;5063684;28;20093;-79
2022/11/25 04:13:32;;;;;;;21.40;8.77;;;;;;;;;;5060047;28;20060;-80
2022/11/25 04:15:58;;;;;;;20.83;8.45;;;;;;;;;;5065138;28;20055;-79
2022/11/25 04:18:24;;;;;;;22.35;8.90;;;;;;;;;;5066395;28;20295;-79
2022/11/25 04:20:50;;;;;;;25.30;9.48;;;;;;;;;;5058680;28;20020;-79
2022/11/25 04:23:16;;;;;;;23.42;9.18;;;;;;;;;;5062701;28;20031;-85
2022/11/25 04:25:42;;;;;;;22.05;8.85;;;;;;;;;;5068293;28;20029;-81
2022/11/25 04:28:11;;;;;;;24.10;9.13;;;;;;;;;;5063309;28;20467;-83
2022/11/25 04:30:37;;;;;;;23.85;9.68;;;;;;;;;;5062843;28;20025;-84
2022/11/25 04:33:03;;;;;;;25.38;10.23;;;;;;;;;;5065227;28;20032;-88
2022/11/25 04:35:28;;;;;;;24.05;8.80;;;;;;;;;;5063960;28;20035;-89
2022/11/25 04:37:54;;;;;;;21.45;8.48;;;;;;;;;;5066446;28;20056;-84
2022/11/25 04:40:20;;;;;;;22.33;9.43;;;;;;;;;;5062988;28;20020;-85
2022/11/25 04:42:46;;;;;;;23.85;8.95;;;;;;;;;;5062455;28;20116;-85
2022/11/25 04:45:16;;;;;;;21.75;9.57;;;;;;;;;;5059565;28;20085;-85
2022/11/25 04:47:42;;;;;;;19.73;9.45;;;;;;;;;;5065204;28;20489;-84
2022/11/25 04:50:12;;;;;;;26.27;10.38;;;;;;;;;;5064295;28;20427;-84
2022/11/25 04:52:38;;;;;;;21.92;10.25;;;;;;;;;;5067849;28;20024;-87
2022/11/25 04:55:04;;;;;;;25.75;9.82;;;;;;;;;;5063435;28;20055;-86
2022/11/25 04:57:30;;;;;;;25.25;9.75;;;;;;;;;;5063459;28;20518;-86
2022/11/25 04:59:56;;;;;;;21.60;8.93;;;;;;;;;;5060921;28;20025;-86
2022/11/25 05:02:23;;;;;;;20.23;9.35;;;;;;;;;;5063447;28;20060;-85
2022/11/25 05:04:50;;;;;;;23.38;9.88;;;;;;;;;;5057198;28;20048;-86
2022/11/25 05:07:17;;;;;;;22.80;10.18;;;;;;;;;;5062289;28;20124;-85
2022/11/25 05:09:43;;;;;;;21.08;9.68;;;;;;;;;;5068058;28;20060;-85
2022/11/25 05:12:13;;;;;;;18.73;9.45;;;;;;;;;;5067853;28;20106;-85
2022/11/25 05:14:38;;;;;;;20.67;9.38;;;;;;;;;;5067952;28;20016;-85
2022/11/25 05:17:07;;;;;;;26.02;10.27;;;;;;;;;;5062530;28;20441;-86
2022/11/25 05:19:37;;;;;;;22.98;8.98;;;;;;;;;;5062958;28;20032;-85
2022/11/25 05:22:03;;;;;;;24.08;10.02;;;;;;;;;;5060556;28;20028;-86
2022/11/25 05:24:28;;;;;;;21.15;9.57;;;;;;;;;;5062343;28;20090;-86
2022/11/25 05:26:54;;;;;;;25.83;9.45;;;;;;;;;;5067709;28;20024;-86
2022/11/25 05:29:20;;;;;;;17.05;8.77;;;;;;;;;;5067943;28;20360;-86
2022/11/25 05:31:46;;;;;;;24.70;9.05;;;;;;;;;;5068351;28;20028;-86
2022/11/25 05:34:12;;;;;;;23.95;9.23;;;;;;;;;;5063495;28;20110;-86
2022/11/25 05:36:38;;;;;;;26.13;9.63;;;;;;;;;;5062122;28;20271;-86
2022/11/25 05:39:04;;;;;;;22.55;8.90;;;;;;;;;;5067796;28;20394;-86
2022/11/25 05:41:30;;;;;;;22.38;8.68;;;;;;;;;;5065504;28;20432;-79
2022/11/25 05:43:56;;;;;;;21.70;9.18;;;;;;;;;;5061824;28;20055;-82
2022/11/25 05:46:22;;;;;;;21.77;9.73;;;;;;;;;;5065376;28;20036;-82
2022/11/25 05:48:52;;;;;;;26.48;9.95;;;;;;;;;;5067671;28;20045;-82
2022/11/25 05:51:17;;;;;;;28.90;10.10;;;;;;;;;;5059244;28;20085;-81
2022/11/25 05:53:43;;;;;;;30.10;10.18;;;;;;;;;;5063053;28;20179;-82
2022/11/25 05:56:10;;;;;;;27.15;10.07;;;;;;;;;;5062508;28;20012;-82
2022/11/25 05:58:35;;;;;;;19.90;9.23;;;;;;;;;;5067061;28;20093;-85
2022/11/25 06:01:06;;;;;;;30.63;9.40;;;;;;;;;;5056229;28;20021;-81
2022/11/25 06:03:32;;;;;;;22.20;9.25;;;;;;;;;;5058292;28;20396;-87
2022/11/25 06:05:59;;;;;;;25.30;9.85;;;;;;;;;;5056199;28;20037;-79
2022/11/25 06:08:25;;;;;;;22.80;9.40;;;;;;;;;;5058478;28;20036;-80
2022/11/25 06:10:51;;;;;;;30.50;9.32;;;;;;;;;;5065661;28;20055;-77
2022/11/25 06:13:17;;;;;;;23.48;10.68;;;;;;;;;;5064202;28;20499;-77
2022/11/25 06:15:44;;;;;;;23.00;9.32;;;;;;;;;;5051563;28;20550;-78
2022/11/25 06:18:10;;;;;;;27.23;9.65;;;;;;;;;;5059199;28;20037;-78
2022/11/25 06:20:36;;;;;;;19.52;8.65;;;;;;;;;;5067525;28;20028;-77
2022/11/25 06:23:02;;;;;;;24.33;9.82;;;;;;;;;;5067314;28;20028;-76
2022/11/25 06:25:29;;;;;;;28.67;10.52;;;;;;;;;;5055054;28;20051;-79
2022/11/25 06:27:55;;;;;;;22.17;10.20;;;;;;;;;;5061604;28;20462;-76
2022/11/25 06:30:21;;;;;;;28.15;9.88;;;;;;;;;;5053832;28;20033;-79
2022/11/25 06:32:47;;;;;;;25.05;9.98;;;;;;;;;;5055298;28;20119;-77
2022/11/25 06:35:14;;;;;;;24.98;10.23;;;;;;;;;;5063869;28;20112;-78
2022/11/25 06:37:43;;;;;;;29.02;10.63;;;;;;;;;;5060990;28;20112;-76
2022/11/25 06:40:09;;;;;;;26.08;9.27;;;;;;;;;;5063535;28;20121;-76
2022/11/25 06:42:37;;;;;;;27.35;9.48;;;;;;;;;;5063224;28;20071;-77
2022/11/25 06:45:03;;;;;;;21.27;9.63;;;;;;;;;;5063029;28;20029;-77
2022/11/25 06:47:29;;;;;;;24.17;9.95;;;;;;;;;;5061204;28;20028;-77
2022/11/25 06:49:55;;;;;;;30.83;9.82;;;;;;;;;;5064672;28;20044;-77
2022/11/25 06:52:21;;;;;;;23.55;9.95;;;;;;;;;;5063322;28;20024;-77
2022/11/25 06:54:47;;;;;;;25.65;8.65;;;;;;;;;;5066427;28;20064;-77
2022/11/25 06:57:16;;;;;;;27.52;9.95;;;;;;;;;;5067818;28;20043;-77
2022/11/25 06:59:42;;;;;;;25.90;9.93;;;;;;;;;;5064598;28;20025;-77
2022/11/25 07:02:10;;;;;;;24.63;9.38;;;;;;;;;;5064877;28;20021;-77
2022/11/25 07:04:36;;;;;;;20.85;9.70;;;;;;;;;;5063976;28;20028;-77
2022/11/25 07:07:02;;;;;;;23.95;9.48;;;;;;;;;;5068864;28;20103;-77
2022/11/25 07:09:28;;;;;;;23.48;8.40;;;;;;;;;;5067416;28;20043;-77
2022/11/25 07:11:54;;;;;;;28.15;9.25;;;;;;;;;;5067391;28;20383;-77
2022/11/25 07:14:20;;;;;;;26.88;9.27;;;;;;;;;;5064527;28;20031;-77
2022/11/25 07:16:47;;;;;;;24.85;10.57;;;;;;;;;;5064478;28;20124;-77
2022/11/25 07:19:14;;;;;;;28.17;9.77;;;;;;;;;;5066209;28;20029;-77
2022/11/25 07:21:43;;;;;;;27.80;11.10;;;;;;;;;;5067806;28;20009;-77
2022/11/25 07:24:09;;;;;;;22.63;9.38;;;;;;;;;;5066204;28;20034;-77
2022/11/25 07:26:40;;;;;;;25.38;10.07;;;;;;;;;;5068262;28;20032;-77
2022/11/25 07:29:07;;;;;;;26.42;9.88;;;;;;;;;;5063641;28;20029;-77
2022/11/25 07:31:34;;;;;;;32.60;10.52;;;;;;;;;;5066881;28;20035;-77
2022/11/25 07:34:01;;;;;;;27.75;11.13;;;;;;;;;;5062653;28;20028;-77
2022/11/25 07:36:28;;;;;;;29.45;10.63;;;;;;;;;;5056362;28;20082;-77
2022/11/25 07:38:53;;;;;;;28.85;10.88;;;;;;;;;;5062431;28;20093;-78
2022/11/25 07:41:24;;;;;;;29.90;11.80;;;;;;;;;;5063563;28;20491;-78
2022/11/25 07:43:51;;;;;;;31.23;10.80;;;;;;;;;;5066908;28;20029;-78
2022/11/25 07:46:21;;;;;;;39.08;11.45;;;;;;;;;;5066477;28;20028;-78
2022/11/25 07:48:47;;;;;;;34.75;12.35;;;;;;;;;;5066002;28;20036;-78
2022/11/25 07:51:33;;;;;;;30.70;10.90;;;;;;;;;;5060992;28;20036;-78
2022/11/25 07:54:00;;;;;;;34.97;10.82;;;;;;;;;;5056132;28;20045;-78
2022/11/25 07:56:27;;;;;;;37.38;10.75;;;;;;;;;;5066880;28;20147;-78
2022/11/25 07:58:53;;;;;;;38.22;12.27;;;;;;;;;;5066908;28;20031;-78
2022/11/25 08:01:19;;;;;;;30.27;11.38;;;;;;;;;;5059477;28;20085;-78
2022/11/25 08:03:46;;;;;;;39.10;12.15;;;;;;;;;;5058566;28;20027;-81
2022/11/25 08:06:15;;;;;;;33.03;13.13;;;;;;;;;;5067243;28;20025;-81
2022/11/25 08:08:41;;;;;;;34.28;11.73;;;;;;;;;;5061764;28;20160;-79
2022/11/25 08:11:11;;;;;;;36.65;12.90;;;;;;;;;;5069147;28;20060;-82
2022/11/25 08:13:38;;;;;;;29.40;10.15;;;;;;;;;;5059760;28;20050;-81
2022/11/25 08:16:04;;;;;;;31.30;11.70;;;;;;;;;;5055040;28;20432;-81
2022/11/25 08:18:30;;;;;;;31.85;10.85;;;;;;;;;;5068411;28;20021;-80
2022/11/25 08:21:00;;;;;;;35.33;12.45;;;;;;;;;;5068820;28;20473;-81
2022/11/25 08:23:26;;;;;;;39.05;13.13;;;;;;;;;;5068718;28;20036;-81
2022/11/25 08:25:52;;;;;;;35.25;12.00;;;;;;;;;;5059692;28;20036;-81
2022/11/25 08:28:18;;;;;;;35.45;11.13;;;;;;;;;;5068721;28;20030;-81
2022/11/25 08:30:44;;;;;;;30.48;10.95;;;;;;;;;;5067117;28;21028;-80
2022/11/25 08:33:10;;;;;;;36.38;12.35;;;;;;;;;;5065270;28;20020;-80
2022/11/25 08:35:36;;;;;;;33.92;12.63;;;;;;;;;;5068503;28;20478;-81
2022/11/25 08:38:04;;;;;;;35.42;12.23;;;;;;;;;;5068374;28;20148;-81
2022/11/25 08:40:30;;;;;;;33.47;10.63;;;;;;;;;;5068299;28;20024;-81
2022/11/25 08:42:56;;;;;;;34.08;11.50;;;;;;;;;;5067455;28;20016;-80
2022/11/25 08:45:22;;;;;;;28.75;11.18;;;;;;;;;;5068287;28;20459;-81
2022/11/25 08:47:48;;;;;;;31.63;10.90;;;;;;;;;;5068499;28;20033;-80
2022/11/25 08:50:14;;;;;;;29.55;9.90;;;;;;;;;;5068027;28;20132;-80
2022/11/25 08:52:40;;;;;;;29.48;11.45;;;;;;;;;;5066512;28;20111;-80
2022/11/25 08:55:08;;;;;;;26.13;10.45;;;;;;;;;;5060688;28;20058;-81
2022/11/25 08:57:34;;;;;;;34.58;10.85;;;;;;;;;;5068111;28;20037;-83
2022/11/25 09:00:00;;;;;;;36.85;11.35;;;;;;;;;;5066429;28;20035;-81
2022/11/25 09:02:26;;;;;;;27.40;10.68;;;;;;;;;;5067944;28;20021;-80
2022/11/25 09:04:52;;;;;;;21.30;9.15;;;;;;;;;;5068030;28;20107;-83
2022/11/25 09:07:18;;;;;;;29.10;9.75;;;;;;;;;;5067706;28;20036;-81
2022/11/25 09:09:43;;;;;;;21.58;9.63;;;;;;;;;;5058062;28;20032;-80
2022/11/25 09:12:09;;;;;;;24.13;8.63;;;;;;;;;;5063934;28;20107;-80
2022/11/25 09:14:35;;;;;;;21.63;8.73;;;;;;;;;;5068027;28;20521;-81
2022/11/25 09:17:02;;;;;;;25.33;9.00;;;;;;;;;;5068316;28;20029;-81
2022/11/25 09:19:28;;;;;;;24.65;10.02;;;;;;;;;;5064751;28;20056;-81
2022/11/25 09:21:54;;;;;;;20.35;8.52;;;;;;;;;;5064390;28;20080;-81
2022/11/25 09:24:20;;;;;;;20.27;7.95;;;;;;;;;;5067422;28;20031;-81
2022/11/25 09:26:46;;;;;;;21.08;9.60;;;;;;;;;;5067659;28;20641;-81
2022/11/25 09:29:13;;;;;;;18.13;8.52;;;;;;;;;;5067375;28;20115;-80
2022/11/25 09:31:39;;;;;;;26.33;9.07;;;;;;;;;;5054624;28;20054;-80
2022/11/25 09:34:06;;;;;;;24.45;8.73;;;;;;;;;;5067582;28;20028;-80
2022/11/25 09:36:32;;;;;;;18.40;9.15;;;;;;;;;;5067279;28;20099;-81
2022/11/25 09:38:58;;;;;;;21.92;7.88;;;;;;;;;;5067505;28;20460;-81
2022/11/25 09:47:24;;;;;;;26.33;11.00;;;;;;;;;;5067088;28;20093;-81
2022/11/25 09:49:50;;;;;;;24.17;9.63;;;;;;;;;;5067279;28;20044;-81
2022/11/25 09:52:36;;;;;;;19.77;8.70;;;;;;;;;;5065724;28;20040;-80
2022/11/25 09:55:05;;;;;;;29.75;10.93;;;;;;;;;;5067361;28;20020;-81
2022/11/25 09:57:40;;;;;;;25.17;9.50;;;;;;;;;;5067253;28;20487;-81
2022/11/25 10:00:11;;;;;;;26.65;9.90;;;;;;;;;;5067624;28;20023;-81
2022/11/25 10:02:40;;;;;;;20.90;9.10;;;;;;;;;;5065803;28;20091;-81
2022/11/25 10:05:06;;;;;;;25.10;9.85;;;;;;;;;;5066386;28;20271;-81
2022/11/25 10:07:37;;;;;;;25.23;10.25;;;;;;;;;;5066573;28;20600;-81
2022/11/25 10:10:06;;;;;;;22.10;9.23;;;;;;;;;;5067145;28;20619;-81
2022/11/25 10:12:34;;;;;;;28.50;10.45;;;;;;;;;;5066966;28;20104;-81
2022/11/25 10:15:01;;;;;;;25.60;9.93;;;;;;;;;;5065350;28;20699;-81
2022/11/25 10:17:43;;;;;;;18.65;9.32;;;;;;;;;;5067109;28;20034;-81
2022/11/25 10:20:14;;;;;;;27.52;9.75;;;;;;;;;;5067016;28;20071;-81
2022/11/25 10:22:42;;;;;;;25.67;10.50;;;;;;;;;;5069773;28;20379;-81
2022/11/25 10:25:19;;;;;;;19.55;9.52;;;;;;;;;;5070313;28;20036;-81
2022/11/25 10:27:48;;;;;;;27.30;9.70;;;;;;;;;;5071248;28;20039;-81
2022/11/25 10:30:19;;;;;;;32.47;9.68;;;;;;;;;;5070678;28;20078;-81
2022/11/25 10:32:48;;;;;;;24.00;10.75;;;;;;;;;;5072071;28;20111;-81
2022/11/25 10:35:19;;;;;;;20.42;9.57;;;;;;;;;;5073875;28;20040;-80
2022/11/25 10:37:45;;;;;;;24.75;9.65;;;;;;;;;;5071425;28;20020;-80
2022/11/25 10:40:16;;;;;;;21.63;8.63;;;;;;;;;;5075980;28;20032;-80
2022/11/25 10:42:42;;;;;;;22.52;9.68;;;;;;;;;;5071574;28;20111;-81
2022/11/25 10:45:09;;;;;;;25.27;9.73;;;;;;;;;;5070362;28;20029;-81
2022/11/25 10:47:53;;;;;;;23.23;9.40;;;;;;;;;;5063686;28;20032;-81
2022/11/25 10:50:30;;;;;;;26.40;10.20;;;;;;;;;;5070416;28;20040;-81
2022/11/25 10:52:58;;;;;;;23.50;9.82;;;;;;;;;;5069065;28;20024;-81
2022/11/25 10:55:26;;;;;;;20.85;10.35;;;;;;;;;;5069981;28;20093;-82
2022/11/25 10:57:52;;;;;;;30.20;10.70;;;;;;;;;;5064654;28;20028;-81
2022/11/25 11:00:26;;;;;;;22.30;10.25;;;;;;;;;;5070365;28;20029;-82
2022/11/25 11:02:53;;;;;;;26.00;10.00;;;;;;;;;;5069974;28;20115;-81
2022/11/25 11:05:22;;;;;;;23.13;9.55;;;;;;;;;;5070117;28;20036;-82
2022/11/25 11:08:06;;;;;;;27.38;10.93;;;;;;;;;;5068750;28;20035;-82
2022/11/25 11:10:31;;;;;;;25.02;10.45;;;;;;;;;;5070055;28;20020;-81
2022/11/25 11:12:59;;;;;;;25.02;10.32;;;;;;;;;;5070390;28;20467;-81
2022/11/25 11:15:29;;;;;;;25.38;10.77;;;;;;;;;;5069929;28;20162;-81
2022/11/25 11:17:56;;;;;;;23.60;10.35;;;;;;;;;;5069044;28;20058;-82
2022/11/25 11:20:26;;;;;;;24.65;10.75;;;;;;;;;;5069070;28;20483;-81
2022/11/25 11:23:01;;;;;;;23.33;11.97;;;;;;;;;;5070109;28;20029;-81
2022/11/25 11:25:30;;;;;;;31.45;10.80;;;;;;;;;;5069691;28;20625;-81
2022/11/25 11:27:56;;;;;;;26.33;11.27;;;;;;;;;;5068453;28;20585;-82
2022/11/25 11:30:24;;;;;;;28.60;11.73;;;;;;;;;;5069572;28;20031;-81
2022/11/25 11:32:56;;;;;;;29.67;11.52;;;;;;;;;;5069857;28;20703;-81
2022/11/25 11:35:22;;;;;;;24.55;11.73;;;;;;;;;;5069832;28;20047;-82
2022/11/25 11:37:51;;;;;;;23.70;11.43;;;;;;;;;;5070132;28;20467;-82
2022/11/25 11:40:27;;;;;;;26.38;10.35;;;;;;;;;;5067352;28;20052;-82
2022/11/25 11:42:58;;;;;;;31.00;12.05;;;;;;;;;;5069802;28;20631;-82
2022/11/25 11:45:24;;;;;;;26.73;12.18;;;;;;;;;;5068916;28;20031;-82
2022/11/25 11:48:09;;;;;;;29.17;11.70;;;;;;;;;;5069508;28;20025;-80
2022/11/25 11:50:39;;;;;;;30.90;11.63;;;;;;;;;;5055952;28;20510;-82
2022/11/25 11:53:27;;;;;;;24.17;11.00;;;;;;;;;;5049742;28;20457;-81
2022/11/25 11:56:01;;;;;;;27.58;10.98;;;;;;;;;;5064397;28;20025;-83
2022/11/25 11:58:32;;;;;;;23.25;9.85;;;;;;;;;;5058073;28;20112;-83
2022/11/25 12:00:58;;;;;;;24.15;9.68;;;;;;;;;;5069475;28;20025;-83
2022/11/25 12:03:25;;;;;;;23.05;11.10;;;;;;;;;;5069074;28;20585;-83
2022/11/25 12:05:53;;;;;;;22.27;10.40;;;;;;;;;;5069177;28;20029;-83
2022/11/25 12:08:38;;;;;;;25.70;11.48;;;;;;;;;;5065404;28;20024;-83
2022/11/25 12:11:09;;;;;;;23.55;10.27;;;;;;;;;;5069215;28;20038;-80
2022/11/25 12:13:58;;;;;;;28.63;10.98;;;;;;;;;;5068048;28;20032;-81
2022/11/25 12:16:29;;;;;;;23.92;9.30;;;;;;;;;;5067810;28;20036;-83
2022/11/25 12:19:19;;;;;;;17.15;8.52;;;;;;;;;;5068119;28;20403;-81
2022/11/25 12:21:50;;;;;;;18.25;8.98;;;;;;;;;;5068667;28;20029;-83
2022/11/25 12:24:21;;;;;;;25.70;10.60;;;;;;;;;;5068835;28;20025;-83
2022/11/25 12:26:57;;;;;;;19.27;9.40;;;;;;;;;;5067393;28;20062;-83
2022/11/25 12:29:32;;;;;;;18.67;9.02;;;;;;;;;;5068646;28;20074;-83
2022/11/25 12:32:08;;;;;;;22.45;8.98;;;;;;;;;;5067405;28;20471;-83
2022/11/25 12:34:39;;;;;;;18.88;9.48;;;;;;;;;;5068493;28;20423;-81
2022/11/25 12:37:11;;;;;;;24.42;10.10;;;;;;;;;;5068553;28;20024;-83
2022/11/25 12:39:40;;;;;;;23.52;9.63;;;;;;;;;;5068486;28;20178;-80
2022/11/25 12:42:20;;;;;;;18.13;8.60;;;;;;;;;;5066906;28;20024;-81
2022/11/25 12:45:01;;;;;;;20.52;9.25;;;;;;;;;;5068029;28;20031;-81
2022/11/25 12:47:27;;;;;;;21.75;9.93;;;;;;;;;;5068475;28;20035;-81
2022/11/25 12:49:53;;;;;;;18.55;8.93;;;;;;;;;;5068064;28;20072;-84
2022/11/25 12:52:38;;;;;;;20.70;9.25;;;;;;;;;;5067513;28;20054;-80
2022/11/25 12:55:06;;;;;;;19.67;8.73;;;;;;;;;;5068630;28;20039;-81
2022/11/25 12:57:51;;;;;;;19.33;8.40;;;;;;;;;;5068000;28;20098;-80
2022/11/25 13:00:19;;;;;;;19.13;8.73;;;;;;;;;;5068137;28;20028;-80
2022/11/25 13:02:51;;;;;;;20.88;9.68;;;;;;;;;;5063169;28;20028;-79
2022/11/25 13:05:20;;;;;;;22.48;9.80;;;;;;;;;;5068162;28;20131;-80
2022/11/25 13:08:16;;;;;;;20.27;9.77;;;;;;;;;;5068088;28;20033;-80
2022/11/25 13:10:55;;;;;;;19.38;8.45;;;;;;;;;;5061483;28;20041;-82
2022/11/25 13:13:30;;;;;;;21.48;9.73;;;;;;;;;;5066425;28;20036;-81
2022/11/25 13:15:58;;;;;;;19.25;8.45;;;;;;;;;;5068167;28;20029;-83
2022/11/25 13:18:25;;;;;;;16.15;8.50;;;;;;;;;;5054349;28;20083;-83
2022/11/25 13:20:52;;;;;;;16.33;7.88;;;;;;;;;;5067807;28;20028;-83
2022/11/25 13:23:18;;;;;;;16.92;8.52;;;;;;;;;;5061241;28;20488;-82
2022/11/25 13:25:45;;;;;;;17.35;8.38;;;;;;;;;;5067055;28;20101;-82
2022/11/25 13:28:28;;;;;;;21.75;8.68;;;;;;;;;;5072025;28;20434;-82
2022/11/25 13:30:54;;;;;;;18.75;8.73;;;;;;;;;;5068933;28;20034;-82
2022/11/25 13:33:23;;;;;;;20.90;7.97;;;;;;;;;;5067493;28;20112;-81
2022/11/25 13:35:51;;;;;;;17.48;8.38;;;;;;;;;;5056010;28;20032;-81
2022/11/25 13:38:29;;;;;;;20.83;7.75;;;;;;;;;;5047657;28;20048;-82
2022/11/25 13:41:03;;;;;;;20.10;8.80;;;;;;;;;;5047555;28;20025;-82
2022/11/25 13:43:29;;;;;;;19.17;8.05;;;;;;;;;;5049093;28;20120;-83
2022/11/25 13:45:55;;;;;;;19.00;9.07;;;;;;;;;;5067182;28;20028;-82
2022/11/25 13:48:29;;;;;;;17.67;8.73;;;;;;;;;;5067182;28;20105;-82
2022/11/25 13:51:13;;;;;;;22.83;8.95;;;;;;;;;;5067550;28;20059;-82
2022/11/25 13:53:42;;;;;;;22.83;9.35;;;;;;;;;;5067293;28;20036;-82
2022/11/25 13:56:20;;;;;;;22.20;9.02;;;;;;;;;;5065653;28;20021;-82
2022/11/25 13:59:24;;;;;;;19.38;10.18;;;;;;;;;;5073404;28;20037;-82
2022/11/25 14:01:50;;;;;;;24.85;9.63;;;;;;;;;;5070746;28;20039;-82
2022/11/25 14:04:17;;;;;;;24.85;10.13;;;;;;;;;;5053341;28;20857;-82
2022/11/25 14:06:51;;;;;;;20.23;9.25;;;;;;;;;;5063185;28;20040;-85
2022/11/25 14:09:26;;;;;;;22.02;9.73;;;;;;;;;;5074184;28;20111;-82
2022/11/25 14:12:11;;;;;;;22.52;9.45;;;;;;;;;;5073684;28;20032;-82
2022/11/25 14:14:57;;;;;;;23.77;9.50;;;;;;;;;;5069595;28;20038;-81
2022/11/25 14:17:37;;;;;;;23.25;9.48;;;;;;;;;;5069403;28;20554;-82
2022/11/25 14:20:10;;;;;;;24.70;10.00;;;;;;;;;;5082377;28;20023;-81
2022/11/25 14:22:47;;;;;;;25.52;9.70;;;;;;;;;;5076035;28;20036;-82
2022/11/25 14:25:21;;;;;;;22.45;10.00;;;;;;;;;;5067294;28;20037;-82
2022/11/25 14:27:48;;;;;;;21.63;10.02;;;;;;;;;;5071077;28;20032;-82
2022/11/25 14:30:15;;;;;;;23.83;9.93;;;;;;;;;;5067381;28;20032;-82
2022/11/25 14:32:47;;;;;;;17.20;8.48;;;;;;;;;;5071253;28;20086;-82
2022/11/25 14:35:15;;;;;;;20.65;9.23;;;;;;;;;;5073310;28;20029;-82
2022/11/25 14:37:44;;;;;;;21.48;9.27;;;;;;;;;;5063546;28;20039;-81
2022/11/25 14:40:14;;;;;;;23.00;10.23;;;;;;;;;;5066993;28;20078;-82
2022/11/25 14:42:42;;;;;;;25.15;10.77;;;;;;;;;;5059350;28;20033;-82
2022/11/25 14:45:32;;;;;;;19.00;9.32;;;;;;;;;;5072497;28;20074;-81